sensor_id;sensor_type;location;lat;lon;timestamp;temperature;humidity
77700;DHT22;66867;42.658;23.320;2023-04-07T00:00:00;5.6;53
77700;DHT22;66867;42.658;23.320;2023-04-07T00:01:00;5.5;53
77700;DHT22;66867;42.658;23.320;2023-04-07T00:02:00;5.5;53
77700;DHT22;66867;42.658;23.320;2023-04-07T00:03:00;5.6;53
77700;DHT22;66867;42.658;23.320;2023-04-07T00:04:00;5.6;53
77700;DHT22;66867;42.658;23.320;2023-04-07T00:05:00;5.6;53
77700;DHT22;66867;42.658;23.320;2023-04-07T00:06:00;5.5;53
77700;DHT22;66867;42.658;23.320;2023-04-07T00:07:00;5.5;53
77700;DHT22;66867;42.658;23.320;2023-04-07T00:08:00;5.5;53
77700;DHT22;66867;42.658;23.320;2023-04-07T00:09:00;5.5;53
77700;DHT22;66867;42.658;23.320;2023-04-07T00:10:00;5.5;53
77700;DHT22;66867;42.658;23.320;2023-04-07T00:11:00;5.5;53
77700;DHT22;66867;42.658;23.320;2023-04-07T00:12:00;5.6;53
77700;DHT22;66867;42.658;23.320;2023-04-07T00:13:00;5.5;53
77700;DHT22;66867;42.658;23.320;2023-04-07T00:14:00;5.5;53
77700;DHT22;66867;42.658;23.320;2023-04-07T00:15:00;5.5;53
77700;DHT22;66867;42.658;23.320;2023-04-07T00:16:00;5.5;53
77700;DHT22;66867;42.658;23.320;2023-04-07T00:17:00;5.5;53
77700;DHT22;66867;42.658;23.320;2023-04-07T00:18:00;5.4;53
77700;DHT22;66867;42.658;23.320;2023-04-07T00:19:00;5.4;53
77700;DHT22;66867;42.658;23.320;2023-04-07T00:20:00;5.4;53
77700;DHT22;66867;42.658;23.320;2023-04-07T00:21:00;5.4;53
77700;DHT22;66867;42.658;23.320;2023-04-07T00:22:00;5.5;53
77700;DHT22;66867;42.658;23.320;2023-04-07T00:23:00;5.5;53
77700;DHT22;66867;42.658;23.320;2023-04-07T00:24:00;5.5;53
77700;DHT22;66867;42.658;23.320;2023-04-07T00:25:00;5.5;53
77700;DHT22;66867;42.658;23.320;2023-04-07T00:26:00;5.5;53
77700;DHT22;66867;42.658;23.320;2023-04-07T00:27:00;5.5;53
77700;DHT22;66867;42.658;23.320;2023-04-07T00:28:00;5.5;53
77700;DHT22;66867;42.658;23.320;2023-04-07T00:29:00;5.5;53
77700;DHT22;66867;42.658;23.320;2023-04-07T00:30:00;5.5;53
77700;DHT22;66867;42.658;23.320;2023-04-07T00:31:00;5.4;53
77700;DHT22;66867;42.658;23.320;2023-04-07T00:32:00;5.5;53
77700;DHT22;66867;42.658;23.320;2023-04-07T00:33:00;5.4;53
77700;DHT22;66867;42.658;23.320;2023-04-07T00:34:00;5.5;53
77700;DHT22;66867;42.658;23.320;2023-04-07T00:35:00;5.5;52
77700;DHT22;66867;42.658;23.320;2023-04-07T00:36:00;5.5;52
77700;DHT22;66867;42.658;23.320;2023-04-07T00:37:00;5.5;52
77700;DHT22;66867;42.658;23.320;2023-04-07T00:38:00;5.5;52
77700;DHT22;66867;42.658;23.320;2023-04-07T00:39:00;5.5;52
77700;DHT22;66867;42.658;23.320;2023-04-07T00:40:00;5.6;52
77700;DHT22;66867;42.658;23.320;2023-04-07T00:41:00;5.6;53
77700;DHT22;66867;42.658;23.320;2023-04-07T00:42:02;5.6;52
77700;DHT22;66867;42.658;23.320;2023-04-07T00:43:00;5.5;53
77700;DHT22;66867;42.658;23.320;2023-04-07T00:44:00;5.6;52
77700;DHT22;66867;42.658;23.320;2023-04-07T00:45:00;5.5;52
77700;DHT22;66867;42.658;23.320;2023-04-07T00:46:00;5.5;52
77700;DHT22;66867;42.658;23.320;2023-04-07T00:47:00;5.5;53
77700;DHT22;66867;42.658;23.320;2023-04-07T00:48:00;5.5;53
77700;DHT22;66867;42.658;23.320;2023-04-07T00:49:00;5.6;53
77700;DHT22;66867;42.658;23.320;2023-04-07T00:50:00;5.6;53
77700;DHT22;66867;42.658;23.320;2023-04-07T00:51:00;5.6;53
77700;DHT22;66867;42.658;23.320;2023-04-07T00:52:00;5.6;52
77700;DHT22;66867;42.658;23.320;2023-04-07T00:53:00;5.6;52
77700;DHT22;66867;42.658;23.320;2023-04-07T00:54:00;5.6;52
77700;DHT22;66867;42.658;23.320;2023-04-07T00:55:00;5.6;52
77700;DHT22;66867;42.658;23.320;2023-04-07T00:56:00;5.5;52
77700;DHT22;66867;42.658;23.320;2023-04-07T00:57:00;5.6;52
77700;DHT22;66867;42.658;23.320;2023-04-07T00:58:00;5.5;52
77700;DHT22;66867;42.658;23.320;2023-04-07T00:59:01;5.4;53
77700;DHT22;66867;42.658;23.320;2023-04-07T01:00:00;5.4;53
77700;DHT22;66867;42.658;23.320;2023-04-07T01:01:04;5.3;53
77700;DHT22;66867;42.658;23.320;2023-04-07T01:02:01;5.3;53
77700;DHT22;66867;42.658;23.320;2023-04-07T01:03:02;5.4;53
77700;DHT22;66867;42.658;23.320;2023-04-07T01:04:01;5.4;53
77700;DHT22;66867;42.658;23.320;2023-04-07T01:05:17;5.4;53
77700;DHT22;66867;42.658;23.320;2023-04-07T01:06:01;5.4;53
77700;DHT22;66867;42.658;23.320;2023-04-07T01:07:03;5.5;53
77700;DHT22;66867;42.658;23.320;2023-04-07T01:08:11;5.5;53
77700;DHT22;66867;42.658;23.320;2023-04-07T01:10:01;5.5;52
77700;DHT22;66867;42.658;23.320;2023-04-07T01:13:02;5.6;52
77700;DHT22;66867;42.658;23.320;2023-04-07T01:14:00;5.6;52
77700;DHT22;66867;42.658;23.320;2023-04-07T01:15:03;5.6;53
77700;DHT22;66867;42.658;23.320;2023-04-07T01:16:02;5.6;53
77700;DHT22;66867;42.658;23.320;2023-04-07T01:17:00;5.6;53
77700;DHT22;66867;42.658;23.320;2023-04-07T01:18:05;5.7;52
77700;DHT22;66867;42.658;23.320;2023-04-07T01:19:02;5.7;52
77700;DHT22;66867;42.658;23.320;2023-04-07T01:20:01;5.7;52
77700;DHT22;66867;42.658;23.320;2023-04-07T01:21:02;5.6;52
77700;DHT22;66867;42.658;23.320;2023-04-07T01:22:00;5.6;52
77700;DHT22;66867;42.658;23.320;2023-04-07T01:23:01;5.6;52
77700;DHT22;66867;42.658;23.320;2023-04-07T01:27:13;5.6;52
77700;DHT22;66867;42.658;23.320;2023-04-07T01:29:07;5.6;52
77700;DHT22;66867;42.658;23.320;2023-04-07T01:30:00;5.5;52
77700;DHT22;66867;42.658;23.320;2023-04-07T01:31:00;5.5;53
77700;DHT22;66867;42.658;23.320;2023-04-07T01:32:01;5.6;53
77700;DHT22;66867;42.658;23.320;2023-04-07T01:33:00;5.5;52
77700;DHT22;66867;42.658;23.320;2023-04-07T01:34:00;5.6;52
77700;DHT22;66867;42.658;23.320;2023-04-07T01:35:00;5.6;53
77700;DHT22;66867;42.658;23.320;2023-04-07T01:36:00;5.6;52
77700;DHT22;66867;42.658;23.320;2023-04-07T01:37:00;5.5;52
77700;DHT22;66867;42.658;23.320;2023-04-07T01:38:00;5.5;52
77700;DHT22;66867;42.658;23.320;2023-04-07T01:39:00;5.5;52
77700;DHT22;66867;42.658;23.320;2023-04-07T01:40:00;5.6;52
77700;DHT22;66867;42.658;23.320;2023-04-07T01:41:00;5.6;52
77700;DHT22;66867;42.658;23.320;2023-04-07T01:42:00;5.6;52
77700;DHT22;66867;42.658;23.320;2023-04-07T01:43:00;5.6;52
77700;DHT22;66867;42.658;23.320;2023-04-07T01:44:00;5.6;52
77700;DHT22;66867;42.658;23.320;2023-04-07T01:45:00;5.6;52
77700;DHT22;66867;42.658;23.320;2023-04-07T01:46:00;5.6;52
77700;DHT22;66867;42.658;23.320;2023-04-07T01:47:00;5.6;53
77700;DHT22;66867;42.658;23.320;2023-04-07T01:48:00;5.6;53
77700;DHT22;66867;42.658;23.320;2023-04-07T01:49:00;5.6;53
77700;DHT22;66867;42.658;23.320;2023-04-07T01:50:00;5.7;53
77700;DHT22;66867;42.658;23.320;2023-04-07T01:51:00;5.7;53
77700;DHT22;66867;42.658;23.320;2023-04-07T01:52:00;5.7;53
77700;DHT22;66867;42.658;23.320;2023-04-07T01:53:00;5.7;52
77700;DHT22;66867;42.658;23.320;2023-04-07T01:54:00;5.6;52
77700;DHT22;66867;42.658;23.320;2023-04-07T01:55:01;5.6;52
77700;DHT22;66867;42.658;23.320;2023-04-07T01:56:00;5.6;52
77700;DHT22;66867;42.658;23.320;2023-04-07T01:57:00;5.7;52
77700;DHT22;66867;42.658;23.320;2023-04-07T01:58:04;5.7;52
77700;DHT22;66867;42.658;23.320;2023-04-07T01:59:00;5.7;52
77700;DHT22;66867;42.658;23.320;2023-04-07T02:00:00;5.6;52
77700;DHT22;66867;42.658;23.320;2023-04-07T02:01:00;5.6;52
77700;DHT22;66867;42.658;23.320;2023-04-07T02:02:00;5.7;52
77700;DHT22;66867;42.658;23.320;2023-04-07T02:03:04;5.6;52
77700;DHT22;66867;42.658;23.320;2023-04-07T02:05:01;5.6;52
77700;DHT22;66867;42.658;23.320;2023-04-07T02:06:02;5.7;52
77700;DHT22;66867;42.658;23.320;2023-04-07T02:07:00;5.7;52
77700;DHT22;66867;42.658;23.320;2023-04-07T02:08:01;5.7;52
77700;DHT22;66867;42.658;23.320;2023-04-07T02:09:03;5.7;52
77700;DHT22;66867;42.658;23.320;2023-04-07T02:10:01;5.7;52
77700;DHT22;66867;42.658;23.320;2023-04-07T02:11:00;5.7;52
77700;DHT22;66867;42.658;23.320;2023-04-07T02:12:00;5.7;52
77700;DHT22;66867;42.658;23.320;2023-04-07T02:13:00;5.7;52
77700;DHT22;66867;42.658;23.320;2023-04-07T02:14:00;5.7;52
77700;DHT22;66867;42.658;23.320;2023-04-07T02:15:00;5.7;52
77700;DHT22;66867;42.658;23.320;2023-04-07T02:16:00;5.7;52
77700;DHT22;66867;42.658;23.320;2023-04-07T02:17:00;5.7;52
77700;DHT22;66867;42.658;23.320;2023-04-07T02:18:00;5.7;52
77700;DHT22;66867;42.658;23.320;2023-04-07T02:19:00;5.7;52
77700;DHT22;66867;42.658;23.320;2023-04-07T02:20:00;5.7;52
77700;DHT22;66867;42.658;23.320;2023-04-07T02:21:00;5.7;52
77700;DHT22;66867;42.658;23.320;2023-04-07T02:22:02;5.8;52
77700;DHT22;66867;42.658;23.320;2023-04-07T02:23:00;5.7;52
77700;DHT22;66867;42.658;23.320;2023-04-07T02:24:01;5.8;51
77700;DHT22;66867;42.658;23.320;2023-04-07T02:25:00;5.7;51
77700;DHT22;66867;42.658;23.320;2023-04-07T02:26:00;5.7;51
77700;DHT22;66867;42.658;23.320;2023-04-07T02:27:00;5.8;51
77700;DHT22;66867;42.658;23.320;2023-04-07T02:28:00;5.7;51
77700;DHT22;66867;42.658;23.320;2023-04-07T02:29:00;5.8;51
77700;DHT22;66867;42.658;23.320;2023-04-07T02:30:00;5.8;51
77700;DHT22;66867;42.658;23.320;2023-04-07T02:31:00;5.8;51
77700;DHT22;66867;42.658;23.320;2023-04-07T02:32:00;5.7;51
77700;DHT22;66867;42.658;23.320;2023-04-07T02:33:00;5.7;51
77700;DHT22;66867;42.658;23.320;2023-04-07T02:34:00;5.7;51
77700;DHT22;66867;42.658;23.320;2023-04-07T02:35:00;5.8;51
77700;DHT22;66867;42.658;23.320;2023-04-07T02:36:00;5.8;51
77700;DHT22;66867;42.658;23.320;2023-04-07T02:37:00;5.7;51
77700;DHT22;66867;42.658;23.320;2023-04-07T02:38:00;5.8;51
77700;DHT22;66867;42.658;23.320;2023-04-07T02:39:00;5.8;51
77700;DHT22;66867;42.658;23.320;2023-04-07T02:40:00;5.8;51
77700;DHT22;66867;42.658;23.320;2023-04-07T02:41:00;5.7;51
77700;DHT22;66867;42.658;23.320;2023-04-07T02:42:00;5.7;51
77700;DHT22;66867;42.658;23.320;2023-04-07T02:43:00;5.7;51
77700;DHT22;66867;42.658;23.320;2023-04-07T02:44:00;5.7;51
77700;DHT22;66867;42.658;23.320;2023-04-07T02:45:00;5.7;51
77700;DHT22;66867;42.658;23.320;2023-04-07T02:46:00;5.7;51
77700;DHT22;66867;42.658;23.320;2023-04-07T02:47:00;5.6;51
77700;DHT22;66867;42.658;23.320;2023-04-07T02:48:00;5.7;51
77700;DHT22;66867;42.658;23.320;2023-04-07T02:49:00;5.7;51
77700;DHT22;66867;42.658;23.320;2023-04-07T02:50:00;5.7;51
77700;DHT22;66867;42.658;23.320;2023-04-07T02:51:00;5.7;51
77700;DHT22;66867;42.658;23.320;2023-04-07T02:52:00;5.7;51
77700;DHT22;66867;42.658;23.320;2023-04-07T02:53:00;5.6;51
77700;DHT22;66867;42.658;23.320;2023-04-07T02:54:00;5.6;52
77700;DHT22;66867;42.658;23.320;2023-04-07T02:55:00;5.6;52
77700;DHT22;66867;42.658;23.320;2023-04-07T02:56:00;5.6;52
77700;DHT22;66867;42.658;23.320;2023-04-07T02:57:00;5.6;52
77700;DHT22;66867;42.658;23.320;2023-04-07T02:58:00;5.7;52
77700;DHT22;66867;42.658;23.320;2023-04-07T02:59:00;5.7;52
77700;DHT22;66867;42.658;23.320;2023-04-07T03:00:00;5.7;52
77700;DHT22;66867;42.658;23.320;2023-04-07T03:01:00;5.7;52
77700;DHT22;66867;42.658;23.320;2023-04-07T03:02:00;5.8;52
77700;DHT22;66867;42.658;23.320;2023-04-07T03:03:00;5.7;52
77700;DHT22;66867;42.658;23.320;2023-04-07T03:04:00;5.8;52
77700;DHT22;66867;42.658;23.320;2023-04-07T03:05:00;5.8;52
77700;DHT22;66867;42.658;23.320;2023-04-07T03:06:00;5.8;51
77700;DHT22;66867;42.658;23.320;2023-04-07T03:07:00;5.8;51
77700;DHT22;66867;42.658;23.320;2023-04-07T03:08:00;5.9;51
77700;DHT22;66867;42.658;23.320;2023-04-07T03:09:00;5.9;51
77700;DHT22;66867;42.658;23.320;2023-04-07T03:10:00;5.9;51
77700;DHT22;66867;42.658;23.320;2023-04-07T03:11:00;5.8;51
77700;DHT22;66867;42.658;23.320;2023-04-07T03:12:00;5.8;51
77700;DHT22;66867;42.658;23.320;2023-04-07T03:13:00;5.9;51
77700;DHT22;66867;42.658;23.320;2023-04-07T03:14:00;5.9;51
77700;DHT22;66867;42.658;23.320;2023-04-07T03:15:00;5.9;52
77700;DHT22;66867;42.658;23.320;2023-04-07T03:16:00;6.0;52
77700;DHT22;66867;42.658;23.320;2023-04-07T03:17:00;6.0;51
77700;DHT22;66867;42.658;23.320;2023-04-07T03:18:00;5.9;51
77700;DHT22;66867;42.658;23.320;2023-04-07T03:19:00;5.9;51
77700;DHT22;66867;42.658;23.320;2023-04-07T03:20:00;5.9;51
77700;DHT22;66867;42.658;23.320;2023-04-07T03:21:00;5.9;51
77700;DHT22;66867;42.658;23.320;2023-04-07T03:22:00;5.9;52
77700;DHT22;66867;42.658;23.320;2023-04-07T03:23:00;5.9;51
77700;DHT22;66867;42.658;23.320;2023-04-07T03:24:00;5.9;52
77700;DHT22;66867;42.658;23.320;2023-04-07T03:25:00;5.9;51
77700;DHT22;66867;42.658;23.320;2023-04-07T03:26:00;5.9;51
77700;DHT22;66867;42.658;23.320;2023-04-07T03:27:00;5.9;51
77700;DHT22;66867;42.658;23.320;2023-04-07T03:28:00;5.9;52
77700;DHT22;66867;42.658;23.320;2023-04-07T03:29:00;5.9;51
77700;DHT22;66867;42.658;23.320;2023-04-07T03:30:00;5.9;52
77700;DHT22;66867;42.658;23.320;2023-04-07T03:31:00;5.9;51
77700;DHT22;66867;42.658;23.320;2023-04-07T03:32:00;5.9;51
77700;DHT22;66867;42.658;23.320;2023-04-07T03:33:00;5.9;51
77700;DHT22;66867;42.658;23.320;2023-04-07T03:34:00;5.9;51
77700;DHT22;66867;42.658;23.320;2023-04-07T03:35:00;5.9;51
77700;DHT22;66867;42.658;23.320;2023-04-07T03:36:00;6.0;51
77700;DHT22;66867;42.658;23.320;2023-04-07T03:37:00;6.0;51
77700;DHT22;66867;42.658;23.320;2023-04-07T03:38:00;5.9;51
77700;DHT22;66867;42.658;23.320;2023-04-07T03:39:00;6.0;52
77700;DHT22;66867;42.658;23.320;2023-04-07T03:40:00;5.9;51
77700;DHT22;66867;42.658;23.320;2023-04-07T03:41:00;6.0;51
77700;DHT22;66867;42.658;23.320;2023-04-07T03:42:00;5.9;51
77700;DHT22;66867;42.658;23.320;2023-04-07T03:43:00;5.9;52
77700;DHT22;66867;42.658;23.320;2023-04-07T03:44:00;5.9;52
77700;DHT22;66867;42.658;23.320;2023-04-07T03:45:00;5.9;52
77700;DHT22;66867;42.658;23.320;2023-04-07T03:46:00;5.9;51
77700;DHT22;66867;42.658;23.320;2023-04-07T03:47:00;6.0;52
77700;DHT22;66867;42.658;23.320;2023-04-07T03:48:00;5.9;52
77700;DHT22;66867;42.658;23.320;2023-04-07T03:49:00;5.9;51
77700;DHT22;66867;42.658;23.320;2023-04-07T03:50:00;5.9;52
77700;DHT22;66867;42.658;23.320;2023-04-07T03:51:00;5.9;51
77700;DHT22;66867;42.658;23.320;2023-04-07T03:52:00;5.9;52
77700;DHT22;66867;42.658;23.320;2023-04-07T03:53:00;5.9;52
77700;DHT22;66867;42.658;23.320;2023-04-07T03:54:00;5.9;52
77700;DHT22;66867;42.658;23.320;2023-04-07T03:55:00;5.9;52
77700;DHT22;66867;42.658;23.320;2023-04-07T03:56:00;5.9;52
77700;DHT22;66867;42.658;23.320;2023-04-07T03:57:00;5.9;52
77700;DHT22;66867;42.658;23.320;2023-04-07T03:58:00;5.9;52
77700;DHT22;66867;42.658;23.320;2023-04-07T03:59:00;5.8;52
77700;DHT22;66867;42.658;23.320;2023-04-07T04:00:00;5.9;52
77700;DHT22;66867;42.658;23.320;2023-04-07T04:01:00;5.9;52
77700;DHT22;66867;42.658;23.320;2023-04-07T04:02:00;5.9;52
77700;DHT22;66867;42.658;23.320;2023-04-07T04:03:00;6.0;52
77700;DHT22;66867;42.658;23.320;2023-04-07T04:04:00;6.0;52
77700;DHT22;66867;42.658;23.320;2023-04-07T04:05:00;6.0;52
77700;DHT22;66867;42.658;23.320;2023-04-07T04:06:00;5.9;52
77700;DHT22;66867;42.658;23.320;2023-04-07T04:07:00;5.9;52
77700;DHT22;66867;42.658;23.320;2023-04-07T04:08:00;5.9;52
77700;DHT22;66867;42.658;23.320;2023-04-07T04:09:00;6.0;52
77700;DHT22;66867;42.658;23.320;2023-04-07T04:10:00;6.0;52
77700;DHT22;66867;42.658;23.320;2023-04-07T04:11:00;5.9;52
77700;DHT22;66867;42.658;23.320;2023-04-07T04:12:00;5.9;52
77700;DHT22;66867;42.658;23.320;2023-04-07T04:13:00;6.0;52
77700;DHT22;66867;42.658;23.320;2023-04-07T04:14:00;6.0;52
77700;DHT22;66867;42.658;23.320;2023-04-07T04:15:00;6.0;52
77700;DHT22;66867;42.658;23.320;2023-04-07T04:16:00;6.0;53
77700;DHT22;66867;42.658;23.320;2023-04-07T04:17:00;5.9;53
77700;DHT22;66867;42.658;23.320;2023-04-07T04:18:00;5.9;53
77700;DHT22;66867;42.658;23.320;2023-04-07T04:19:00;5.9;53
77700;DHT22;66867;42.658;23.320;2023-04-07T04:20:00;5.8;52
77700;DHT22;66867;42.658;23.320;2023-04-07T04:21:00;5.8;53
77700;DHT22;66867;42.658;23.320;2023-04-07T04:22:00;5.8;53
77700;DHT22;66867;42.658;23.320;2023-04-07T04:23:00;5.8;53
77700;DHT22;66867;42.658;23.320;2023-04-07T04:24:00;5.8;53
77700;DHT22;66867;42.658;23.320;2023-04-07T04:25:00;5.8;53
77700;DHT22;66867;42.658;23.320;2023-04-07T04:26:00;5.8;53
77700;DHT22;66867;42.658;23.320;2023-04-07T04:27:00;5.8;53
77700;DHT22;66867;42.658;23.320;2023-04-07T04:28:00;5.9;53
77700;DHT22;66867;42.658;23.320;2023-04-07T04:29:00;5.9;53
77700;DHT22;66867;42.658;23.320;2023-04-07T04:30:00;5.9;53
77700;DHT22;66867;42.658;23.320;2023-04-07T04:31:00;5.9;53
77700;DHT22;66867;42.658;23.320;2023-04-07T04:32:00;5.9;53
77700;DHT22;66867;42.658;23.320;2023-04-07T04:33:00;5.9;53
77700;DHT22;66867;42.658;23.320;2023-04-07T04:34:00;5.9;53
77700;DHT22;66867;42.658;23.320;2023-04-07T04:35:00;5.9;53
77700;DHT22;66867;42.658;23.320;2023-04-07T04:36:00;5.8;54
77700;DHT22;66867;42.658;23.320;2023-04-07T04:37:00;5.8;54
77700;DHT22;66867;42.658;23.320;2023-04-07T04:38:00;5.9;54
77700;DHT22;66867;42.658;23.320;2023-04-07T04:39:00;5.9;54
77700;DHT22;66867;42.658;23.320;2023-04-07T04:40:00;6.0;53
77700;DHT22;66867;42.658;23.320;2023-04-07T04:41:00;5.9;53
77700;DHT22;66867;42.658;23.320;2023-04-07T04:42:00;5.9;53
77700;DHT22;66867;42.658;23.320;2023-04-07T04:43:00;5.9;53
77700;DHT22;66867;42.658;23.320;2023-04-07T04:44:00;5.9;53
77700;DHT22;66867;42.658;23.320;2023-04-07T04:45:00;5.9;53
77700;DHT22;66867;42.658;23.320;2023-04-07T04:46:00;5.9;53
77700;DHT22;66867;42.658;23.320;2023-04-07T04:47:00;6.0;53
77700;DHT22;66867;42.658;23.320;2023-04-07T04:48:00;6.0;53
77700;DHT22;66867;42.658;23.320;2023-04-07T04:49:00;6.0;53
77700;DHT22;66867;42.658;23.320;2023-04-07T04:50:00;6.0;53
77700;DHT22;66867;42.658;23.320;2023-04-07T04:51:00;6.0;53
77700;DHT22;66867;42.658;23.320;2023-04-07T04:52:00;6.0;53
77700;DHT22;66867;42.658;23.320;2023-04-07T04:53:00;6.0;53
77700;DHT22;66867;42.658;23.320;2023-04-07T04:54:00;6.1;53
77700;DHT22;66867;42.658;23.320;2023-04-07T04:55:00;6.1;53
77700;DHT22;66867;42.658;23.320;2023-04-07T05:02:00;6.0;61
77700;DHT22;66867;42.658;23.320;2023-04-07T05:03:00;6.0;61
77700;DHT22;66867;42.658;23.320;2023-04-07T05:04:00;6.0;61
77700;DHT22;66867;42.658;23.320;2023-04-07T05:06:00;5.9;61
77700;DHT22;66867;42.658;23.320;2023-04-07T05:07:00;5.9;61
77700;DHT22;66867;42.658;23.320;2023-04-07T05:10:00;5.9;62
77700;DHT22;66867;42.658;23.320;2023-04-07T05:11:00;5.9;62
77700;DHT22;66867;42.658;23.320;2023-04-07T05:12:00;5.9;62
77700;DHT22;66867;42.658;23.320;2023-04-07T05:13:00;5.9;62
77700;DHT22;66867;42.658;23.320;2023-04-07T05:14:00;5.9;62
77700;DHT22;66867;42.658;23.320;2023-04-07T05:15:00;6.0;62
77700;DHT22;66867;42.658;23.320;2023-04-07T05:16:00;6.0;62
77700;DHT22;66867;42.658;23.320;2023-04-07T05:17:00;5.9;63
77700;DHT22;66867;42.658;23.320;2023-04-07T05:18:00;5.9;63
77700;DHT22;66867;42.658;23.320;2023-04-07T05:19:00;5.9;63
77700;DHT22;66867;42.658;23.320;2023-04-07T05:20:00;5.9;64
77700;DHT22;66867;42.658;23.320;2023-04-07T05:21:00;5.9;64
77700;DHT22;66867;42.658;23.320;2023-04-07T05:22:00;5.9;64
77700;DHT22;66867;42.658;23.320;2023-04-07T05:23:00;5.9;64
77700;DHT22;66867;42.658;23.320;2023-04-07T05:24:00;5.8;63
77700;DHT22;66867;42.658;23.320;2023-04-07T05:25:00;5.8;63
77700;DHT22;66867;42.658;23.320;2023-04-07T05:26:00;5.9;63
77700;DHT22;66867;42.658;23.320;2023-04-07T05:27:00;5.9;63
77700;DHT22;66867;42.658;23.320;2023-04-07T05:28:00;5.8;63
77700;DHT22;66867;42.658;23.320;2023-04-07T05:29:00;5.9;63
77700;DHT22;66867;42.658;23.320;2023-04-07T05:30:00;5.9;63
77700;DHT22;66867;42.658;23.320;2023-04-07T05:31:00;5.9;64
77700;DHT22;66867;42.658;23.320;2023-04-07T05:32:00;5.9;63
77700;DHT22;66867;42.658;23.320;2023-04-07T05:33:00;5.9;63
77700;DHT22;66867;42.658;23.320;2023-04-07T05:34:00;5.9;63
77700;DHT22;66867;42.658;23.320;2023-04-07T05:35:00;6.0;64
77700;DHT22;66867;42.658;23.320;2023-04-07T05:36:00;6.1;64
77700;DHT22;66867;42.658;23.320;2023-04-07T05:37:00;6.2;64
77700;DHT22;66867;42.658;23.320;2023-04-07T05:38:00;6.2;64
77700;DHT22;66867;42.658;23.320;2023-04-07T05:39:00;6.2;62
77700;DHT22;66867;42.658;23.320;2023-04-07T05:40:00;6.2;63
77700;DHT22;66867;42.658;23.320;2023-04-07T05:41:00;6.2;62
77700;DHT22;66867;42.658;23.320;2023-04-07T05:42:00;6.3;61
77700;DHT22;66867;42.658;23.320;2023-04-07T05:43:00;6.2;62
77700;DHT22;66867;42.658;23.320;2023-04-07T05:44:00;6.1;63
77700;DHT22;66867;42.658;23.320;2023-04-07T05:45:00;6.1;63
77700;DHT22;66867;42.658;23.320;2023-04-07T05:46:00;6.1;63
77700;DHT22;66867;42.658;23.320;2023-04-07T05:47:00;6.2;63
77700;DHT22;66867;42.658;23.320;2023-04-07T05:48:00;6.2;63
77700;DHT22;66867;42.658;23.320;2023-04-07T05:49:00;6.2;62
77700;DHT22;66867;42.658;23.320;2023-04-07T05:50:00;6.3;62
77700;DHT22;66867;42.658;23.320;2023-04-07T05:51:00;6.2;63
77700;DHT22;66867;42.658;23.320;2023-04-07T05:52:00;6.2;63
77700;DHT22;66867;42.658;23.320;2023-04-07T05:53:00;6.2;63
77700;DHT22;66867;42.658;23.320;2023-04-07T05:54:00;6.3;63
77700;DHT22;66867;42.658;23.320;2023-04-07T05:55:00;6.3;63
77700;DHT22;66867;42.658;23.320;2023-04-07T05:56:00;6.3;63
77700;DHT22;66867;42.658;23.320;2023-04-07T05:57:00;6.3;62
77700;DHT22;66867;42.658;23.320;2023-04-07T05:59:00;6.4;62
77700;DHT22;66867;42.658;23.320;2023-04-07T06:00:00;6.5;62
77700;DHT22;66867;42.658;23.320;2023-04-07T06:01:00;6.5;61
77700;DHT22;66867;42.658;23.320;2023-04-07T06:02:01;6.5;63
77700;DHT22;66867;42.658;23.320;2023-04-07T06:03:00;6.4;63
77700;DHT22;66867;42.658;23.320;2023-04-07T06:04:00;6.5;62
77700;DHT22;66867;42.658;23.320;2023-04-07T06:05:00;6.6;62
77700;DHT22;66867;42.658;23.320;2023-04-07T06:06:00;6.7;63
77700;DHT22;66867;42.658;23.320;2023-04-07T06:07:00;6.8;62
77700;DHT22;66867;42.658;23.320;2023-04-07T06:08:00;6.9;62
77700;DHT22;66867;42.658;23.320;2023-04-07T06:09:00;6.9;60
77700;DHT22;66867;42.658;23.320;2023-04-07T06:10:00;6.9;60
77700;DHT22;66867;42.658;23.320;2023-04-07T06:11:00;6.9;60
77700;DHT22;66867;42.658;23.320;2023-04-07T06:12:00;6.9;61
77700;DHT22;66867;42.658;23.320;2023-04-07T06:13:00;6.9;61
77700;DHT22;66867;42.658;23.320;2023-04-07T06:14:00;7.0;60
77700;DHT22;66867;42.658;23.320;2023-04-07T06:15:00;7.1;60
77700;DHT22;66867;42.658;23.320;2023-04-07T06:16:00;7.1;60
77700;DHT22;66867;42.658;23.320;2023-04-07T06:17:00;7.2;61
77700;DHT22;66867;42.658;23.320;2023-04-07T06:18:00;7.2;60
77700;DHT22;66867;42.658;23.320;2023-04-07T06:19:00;7.2;60
77700;DHT22;66867;42.658;23.320;2023-04-07T06:20:00;7.3;60
77700;DHT22;66867;42.658;23.320;2023-04-07T06:21:00;7.4;60
77700;DHT22;66867;42.658;23.320;2023-04-07T06:22:00;7.5;60
77700;DHT22;66867;42.658;23.320;2023-04-07T06:23:00;7.6;60
77700;DHT22;66867;42.658;23.320;2023-04-07T06:24:00;7.6;60
77700;DHT22;66867;42.658;23.320;2023-04-07T06:25:00;7.7;60
77700;DHT22;66867;42.658;23.320;2023-04-07T06:26:00;7.7;59
77700;DHT22;66867;42.658;23.320;2023-04-07T06:27:00;7.7;58
77700;DHT22;66867;42.658;23.320;2023-04-07T06:28:00;7.6;57
77700;DHT22;66867;42.658;23.320;2023-04-07T06:29:00;7.7;58
77700;DHT22;66867;42.658;23.320;2023-04-07T06:30:00;7.8;58
77700;DHT22;66867;42.658;23.320;2023-04-07T06:31:00;7.9;57
77700;DHT22;66867;42.658;23.320;2023-04-07T06:32:00;7.9;58
77700;DHT22;66867;42.658;23.320;2023-04-07T06:33:00;8.0;57
77700;DHT22;66867;42.658;23.320;2023-04-07T06:34:00;8.0;58
77700;DHT22;66867;42.658;23.320;2023-04-07T06:35:00;8.0;58
77700;DHT22;66867;42.658;23.320;2023-04-07T06:36:00;8.0;58
77700;DHT22;66867;42.658;23.320;2023-04-07T06:37:00;8.0;58
77700;DHT22;66867;42.658;23.320;2023-04-07T06:38:00;8.1;59
77700;DHT22;66867;42.658;23.320;2023-04-07T06:39:00;8.1;58
77700;DHT22;66867;42.658;23.320;2023-04-07T06:40:00;8.2;57
77700;DHT22;66867;42.658;23.320;2023-04-07T06:41:00;8.2;58
77700;DHT22;66867;42.658;23.320;2023-04-07T06:42:00;8.2;58
77700;DHT22;66867;42.658;23.320;2023-04-07T06:43:00;8.3;57
77700;DHT22;66867;42.658;23.320;2023-04-07T06:44:00;8.2;57
77700;DHT22;66867;42.658;23.320;2023-04-07T06:45:00;8.3;57
77700;DHT22;66867;42.658;23.320;2023-04-07T06:46:00;8.4;57
77700;DHT22;66867;42.658;23.320;2023-04-07T06:47:00;8.5;58
77700;DHT22;66867;42.658;23.320;2023-04-07T06:48:00;8.5;56
77700;DHT22;66867;42.658;23.320;2023-04-07T06:49:00;8.5;56
77700;DHT22;66867;42.658;23.320;2023-04-07T06:50:00;8.5;55
77700;DHT22;66867;42.658;23.320;2023-04-07T06:51:00;8.6;56
77700;DHT22;66867;42.658;23.320;2023-04-07T06:52:00;8.6;53
77700;DHT22;66867;42.658;23.320;2023-04-07T06:53:00;8.6;52
77700;DHT22;66867;42.658;23.320;2023-04-07T06:54:00;8.6;52
77700;DHT22;66867;42.658;23.320;2023-04-07T06:55:00;8.7;51
77700;DHT22;66867;42.658;23.320;2023-04-07T06:56:09;8.8;51
77700;DHT22;66867;42.658;23.320;2023-04-07T06:57:00;8.8;51
77700;DHT22;66867;42.658;23.320;2023-04-07T06:58:00;8.9;51
77700;DHT22;66867;42.658;23.320;2023-04-07T06:59:00;9.0;52
77700;DHT22;66867;42.658;23.320;2023-04-07T07:00:00;9.1;52
77700;DHT22;66867;42.658;23.320;2023-04-07T07:01:00;9.2;51
77700;DHT22;66867;42.658;23.320;2023-04-07T07:02:00;9.4;50